Time;durP1;ratioP1;P1;durP2;ratioP2;P2;SDS_P1;SDS_P2;PMS_P1;PMS_P2;Temp;Humidity;BMP_temperature;BMP_pressure;BME280_temperature;BME280_humidity;BME280_pressure;Samples;Min_cycle;Max_cycle;Signal;HPM_P1;HPM_P2
2022/07/11 00:01:43;;;;;;;295.25;281.38;;;15.40;99.90;;;;;;5074399;28;20036;-61
2022/07/11 00:04:09;;;;;;;294.10;280.08;;;15.40;99.90;;;;;;5073825;28;20049;-61
2022/07/11 00:06:35;;;;;;;304.75;290.40;;;15.40;99.90;;;;;;5071823;28;20084;-61
2022/07/11 00:09:00;;;;;;;271.48;258.90;;;15.40;99.90;;;;;;5074233;28;20054;-61
2022/07/11 00:11:26;;;;;;;345.52;328.13;;;15.40;99.90;;;;;;5073970;28;20051;-61
2022/07/11 00:13:52;;;;;;;341.95;324.70;;;15.50;99.90;;;;;;5073417;28;20080;-61
2022/07/11 00:16:18;;;;;;;391.63;371.33;;;15.40;99.90;;;;;;5073827;28;20044;-61
2022/07/11 00:18:44;;;;;;;381.75;363.70;;;15.40;99.90;;;;;;5073730;28;20386;-61
2022/07/11 00:21:11;;;;;;;336.33;320.02;;;15.40;99.90;;;;;;5071949;28;20056;-61
2022/07/11 00:23:37;;;;;;;396.77;377.63;;;15.40;99.90;;;;;;5073004;28;20056;-61
2022/07/11 00:26:04;;;;;;;358.95;341.75;;;15.40;99.90;;;;;;5072858;28;20131;-61
2022/07/11 00:28:30;;;;;;;311.10;296.67;;;15.40;99.90;;;;;;5073782;28;20421;-61
2022/07/11 00:30:55;;;;;;;367.90;349.15;;;15.40;99.90;;;;;;5072794;28;20041;-61
2022/07/11 00:33:21;;;;;;;346.02;329.35;;;15.40;99.90;;;;;;5070991;28;20059;-61
2022/07/11 00:35:47;;;;;;;364.02;346.20;;;15.40;99.90;;;;;;5073465;28;20056;-61
2022/07/11 00:38:13;;;;;;;351.10;333.98;;;15.40;99.90;;;;;;5072624;28;20056;-61
2022/07/11 00:40:40;;;;;;;266.60;254.73;;;15.30;99.90;;;;;;5072412;28;20060;-61
2022/07/11 00:43:06;;;;;;;320.02;304.95;;;15.30;99.90;;;;;;5073182;28;20145;-61
2022/07/11 00:45:32;;;;;;;390.55;370.88;;;15.30;99.90;;;;;;5073596;28;20032;-61
2022/07/11 00:47:58;;;;;;;354.33;335.05;;;15.30;99.90;;;;;;5072558;28;20095;-61
2022/07/11 00:50:25;;;;;;;305.73;289.77;;;15.20;99.90;;;;;;5072804;28;20119;-61
2022/07/11 00:52:52;;;;;;;414.50;391.55;;;15.20;99.90;;;;;;5073359;28;20495;-61
2022/07/11 00:55:19;;;;;;;344.50;327.38;;;15.20;99.90;;;;;;5072417;28;20040;-61
2022/07/11 00:57:46;;;;;;;451.95;425.60;;;15.20;99.90;;;;;;5072771;28;20710;-61
2022/07/11 01:00:12;;;;;;;384.95;365.60;;;15.10;99.90;;;;;;5071616;28;20048;-61
2022/07/11 01:02:39;;;;;;;559.20;526.95;;;15.10;99.90;;;;;;5072310;28;20041;-61
2022/07/11 01:05:05;;;;;;;497.55;469.42;;;15.10;99.90;;;;;;5072748;28;20056;-61
2022/07/11 01:07:32;;;;;;;409.23;387.67;;;15.10;99.90;;;;;;5073285;28;20486;-61
2022/07/11 01:09:58;;;;;;;409.38;388.67;;;15.10;99.90;;;;;;5072204;28;20048;-61
2022/07/11 01:12:24;;;;;;;472.60;446.95;;;15.00;99.90;;;;;;5072749;28;20090;-61
2022/07/11 01:14:55;;;;;;;400.33;378.73;;;15.00;99.90;;;;;;5072107;28;20055;-61
2022/07/11 01:17:21;;;;;;;328.63;312.00;;;15.00;99.90;;;;;;5071854;28;20047;-60
2022/07/11 01:19:46;;;;;;;322.83;305.42;;;14.90;99.90;;;;;;5072696;28;20048;-61
2022/07/11 01:22:14;;;;;;;376.25;355.10;;;14.90;99.90;;;;;;5071573;28;20048;-61
2022/07/11 01:24:42;;;;;;;385.67;363.77;;;14.90;99.90;;;;;;5072345;28;20467;-61
2022/07/11 01:27:09;;;;;;;376.75;356.73;;;14.80;99.90;;;;;;5070914;28;20083;-61
2022/07/11 01:29:34;;;;;;;323.23;306.25;;;14.80;99.90;;;;;;5072082;28;20459;-61
2022/07/11 01:32:00;;;;;;;377.58;357.77;;;14.80;99.90;;;;;;5071487;28;20045;-61
2022/07/11 01:34:26;;;;;;;418.52;394.65;;;14.80;99.90;;;;;;5070999;28;20078;-61
2022/07/11 01:36:52;;;;;;;347.63;327.35;;;14.80;99.90;;;;;;5071802;28;20051;-61
2022/07/11 01:39:18;;;;;;;348.92;329.92;;;14.80;99.90;;;;;;5071168;28;20056;-61
2022/07/11 01:41:43;;;;;;;367.50;346.63;;;14.70;99.90;;;;;;5072497;28;20045;-61
2022/07/11 01:44:09;;;;;;;355.88;336.40;;;14.80;99.90;;;;;;5071676;28;20471;-61
2022/07/11 01:46:35;;;;;;;353.83;334.85;;;14.70;99.90;;;;;;5071200;28;20498;-61
2022/07/11 01:49:01;;;;;;;332.38;315.38;;;14.80;99.90;;;;;;5072453;28;20052;-61
2022/07/11 01:51:28;;;;;;;358.30;338.13;;;14.80;99.90;;;;;;5072015;28;20460;-61
2022/07/11 01:53:55;;;;;;;320.17;303.27;;;14.80;99.90;;;;;;5072299;28;20403;-61
2022/07/11 01:56:22;;;;;;;350.90;332.92;;;14.80;99.90;;;;;;5070862;28;20062;-61
2022/07/11 01:58:48;;;;;;;368.13;349.25;;;14.80;99.90;;;;;;5072033;28;20074;-61
2022/07/11 02:01:15;;;;;;;383.88;364.35;;;14.80;99.90;;;;;;5072360;28;20060;-61
2022/07/11 02:03:41;;;;;;;347.13;329.95;;;14.80;99.90;;;;;;5072185;28;20051;-61
2022/07/11 02:06:06;;;;;;;444.27;418.45;;;14.80;99.90;;;;;;5071992;28;20056;-61
2022/07/11 02:08:32;;;;;;;483.63;451.60;;;14.80;99.90;;;;;;5072443;28;20037;-61
2022/07/11 02:10:58;;;;;;;483.52;454.23;;;14.80;99.90;;;;;;5070774;28;20060;-61
2022/07/11 02:13:24;;;;;;;351.80;332.98;;;14.80;99.90;;;;;;5071834;28;20521;-61
2022/07/11 02:15:51;;;;;;;405.20;381.02;;;14.80;99.90;;;;;;5072223;28;20101;-61
2022/07/11 02:18:18;;;;;;;432.45;405.38;;;14.80;99.90;;;;;;5072226;28;20047;-61
2022/07/11 02:20:50;;;;;;;372.30;350.80;;;14.80;99.90;;;;;;5071327;28;20044;-61
2022/07/11 02:23:17;;;;;;;384.80;364.58;;;14.80;99.90;;;;;;5072273;28;20067;-61
2022/07/11 02:25:43;;;;;;;374.85;353.33;;;14.80;99.90;;;;;;5071281;28;20076;-61
2022/07/11 02:28:10;;;;;;;332.63;314.67;;;14.80;99.90;;;;;;5071899;28;20534;-61
2022/07/11 02:30:36;;;;;;;426.65;400.98;;;14.80;99.90;;;;;;5072081;28;20050;-61
2022/07/11 02:33:03;;;;;;;422.10;398.75;;;14.80;99.90;;;;;;5071468;28;20043;-61
2022/07/11 02:35:29;;;;;;;410.35;386.67;;;14.80;99.90;;;;;;5072219;28;20552;-61
2022/07/11 02:37:54;;;;;;;413.63;391.40;;;14.80;99.90;;;;;;5072133;28;20048;-61
2022/07/11 02:40:20;;;;;;;366.85;348.63;;;14.80;99.90;;;;;;5070722;28;20141;-61
2022/07/11 02:42:46;;;;;;;369.10;349.05;;;14.80;99.90;;;;;;5072049;28;20040;-61
2022/07/11 02:45:12;;;;;;;412.75;390.02;;;14.80;99.90;;;;;;5072271;28;20047;-61
2022/07/11 02:47:39;;;;;;;388.55;366.90;;;14.80;99.90;;;;;;5073113;28;20083;-61
2022/07/11 02:50:11;;;;;;;466.40;439.75;;;14.80;99.90;;;;;;5075784;28;20044;-60
2022/07/11 02:52:37;;;;;;;419.10;395.33;;;14.80;99.90;;;;;;5067556;28;20076;-61
2022/07/11 02:55:03;;;;;;;325.80;309.55;;;14.90;99.90;;;;;;5059869;28;20052;-61
2022/07/11 02:57:29;;;;;;;386.30;365.10;;;14.80;99.90;;;;;;5075347;28;20479;-61
2022/07/11 02:59:55;;;;;;;379.42;359.15;;;14.80;99.90;;;;;;5075586;28;20135;-61
2022/07/11 03:02:21;;;;;;;423.77;400.42;;;14.90;99.90;;;;;;5074515;28;20049;-61
2022/07/11 03:04:46;;;;;;;442.77;418.60;;;14.90;99.90;;;;;;5075242;28;20084;-61
2022/07/11 03:07:12;;;;;;;470.13;444.83;;;14.80;99.90;;;;;;5075600;28;20072;-61
2022/07/11 03:09:38;;;;;;;399.35;378.25;;;14.90;99.90;;;;;;5072979;28;20629;-61
2022/07/11 03:12:04;;;;;;;460.17;435.13;;;14.80;99.90;;;;;;5074781;28;20124;-61
2022/07/11 03:14:30;;;;;;;382.42;361.70;;;14.80;99.90;;;;;;5073996;28;20065;-60
2022/07/11 03:16:56;;;;;;;395.00;373.30;;;14.80;99.90;;;;;;5072976;28;20052;-61
2022/07/11 03:19:21;;;;;;;338.10;320.48;;;14.80;99.90;;;;;;5075211;28;20048;-61
2022/07/11 03:21:47;;;;;;;357.48;338.92;;;14.80;99.90;;;;;;5075037;28;20084;-61
2022/07/11 03:24:13;;;;;;;401.55;380.00;;;14.80;99.90;;;;;;5073793;28;20119;-60
2022/07/11 03:26:39;;;;;;;391.50;370.35;;;14.80;99.90;;;;;;5074981;28;20432;-60
2022/07/11 03:29:07;;;;;;;391.35;370.33;;;14.80;99.90;;;;;;5074507;28;20502;-61
2022/07/11 03:31:33;;;;;;;498.75;470.50;;;14.80;99.90;;;;;;5074289;28;20409;-60
2022/07/11 03:33:59;;;;;;;391.83;370.70;;;14.80;99.90;;;;;;5075158;28;20388;-61
2022/07/11 03:36:26;;;;;;;346.75;328.90;;;14.90;99.90;;;;;;5072901;28;20079;-61
2022/07/11 03:38:52;;;;;;;418.38;397.13;;;14.80;99.90;;;;;;5074206;28;20520;-60
2022/07/11 03:41:17;;;;;;;363.10;345.25;;;14.80;99.90;;;;;;5069444;28;20045;-60
2022/07/11 03:43:43;;;;;;;341.17;324.65;;;14.80;99.90;;;;;;5053745;28;20056;-61
2022/07/11 03:46:09;;;;;;;358.65;341.08;;;14.80;99.90;;;;;;5054576;28;20053;-61
2022/07/11 03:48:35;;;;;;;441.17;416.38;;;14.80;99.90;;;;;;5069595;28;20094;-61
2022/07/11 03:51:00;;;;;;;416.80;393.58;;;14.80;99.90;;;;;;5073812;28;20047;-61
2022/07/11 03:53:26;;;;;;;444.00;418.50;;;14.90;99.90;;;;;;5074176;28;20044;-61
2022/07/11 03:55:52;;;;;;;455.45;429.30;;;14.90;99.90;;;;;;5074291;28;20048;-61
2022/07/11 03:58:18;;;;;;;496.33;466.67;;;14.90;99.90;;;;;;5073499;28;20047;-61
2022/07/11 04:00:44;;;;;;;500.88;470.92;;;14.90;99.90;;;;;;5074192;28;20052;-61
2022/07/11 04:03:10;;;;;;;446.17;421.35;;;14.90;99.90;;;;;;5074063;28;20040;-61
2022/07/11 04:05:36;;;;;;;425.80;402.40;;;14.90;99.90;;;;;;5071994;28;20482;-61
2022/07/11 04:08:02;;;;;;;495.90;466.70;;;14.90;99.90;;;;;;5072515;28;20037;-61
2022/07/11 04:10:28;;;;;;;417.00;393.05;;;14.90;99.90;;;;;;5073967;28;20051;-61
2022/07/11 04:12:54;;;;;;;443.08;416.38;;;14.90;99.90;;;;;;5072337;28;20130;-61
2022/07/11 04:15:20;;;;;;;529.40;496.58;;;15.00;99.90;;;;;;5073527;28;20072;-61
2022/07/11 04:17:45;;;;;;;451.83;425.27;;;15.00;99.90;;;;;;5074181;28;20538;-61
2022/07/11 04:20:11;;;;;;;425.63;401.23;;;15.00;99.90;;;;;;5073355;28;20059;-61
2022/07/11 04:22:37;;;;;;;508.35;478.10;;;15.00;99.90;;;;;;5073986;28;20203;-61
2022/07/11 04:25:03;;;;;;;446.88;421.92;;;15.00;99.90;;;;;;5071936;28;20084;-61
2022/07/11 04:27:29;;;;;;;441.15;417.38;;;15.10;99.90;;;;;;5071984;28;20564;-61
2022/07/11 04:29:55;;;;;;;495.95;468.08;;;15.10;99.90;;;;;;5073893;28;20108;-61
2022/07/11 04:32:21;;;;;;;467.85;440.55;;;15.10;99.90;;;;;;5072476;28;20466;-60
2022/07/11 04:34:47;;;;;;;425.60;402.08;;;15.10;99.90;;;;;;5074026;28;20127;-60
2022/07/11 04:37:13;;;;;;;435.90;412.60;;;15.20;99.90;;;;;;5072389;28;20040;-60
2022/07/11 04:39:39;;;;;;;440.45;416.55;;;15.10;99.90;;;;;;5072114;28;20077;-60
2022/07/11 04:42:06;;;;;;;429.92;406.65;;;15.10;99.90;;;;;;5073358;28;20048;-61
2022/07/11 04:44:33;;;;;;;413.35;391.33;;;15.10;99.90;;;;;;5072178;28;20036;-61
2022/07/11 04:46:58;;;;;;;426.55;403.88;;;15.10;99.90;;;;;;5071189;28;20713;-61
2022/07/11 04:49:24;;;;;;;442.58;418.13;;;15.10;99.90;;;;;;5070075;28;20049;-61
2022/07/11 04:51:50;;;;;;;494.00;466.70;;;15.10;99.90;;;;;;5072003;28;20047;-61
2022/07/11 04:54:16;;;;;;;541.38;509.85;;;15.10;99.90;;;;;;5072395;28;20114;-61
2022/07/11 04:56:42;;;;;;;509.00;479.48;;;15.10;99.90;;;;;;5073478;28;20045;-61
2022/07/11 04:59:08;;;;;;;393.90;372.55;;;15.20;99.90;;;;;;5071463;28;20067;-60
2022/07/11 05:01:34;;;;;;;441.40;417.63;;;15.20;99.90;;;;;;5072339;28;20045;-61
2022/07/11 05:04:00;;;;;;;419.05;395.23;;;15.20;99.90;;;;;;5073197;28;20044;-61
2022/07/11 05:06:26;;;;;;;444.73;419.40;;;15.30;99.90;;;;;;5071697;28;20052;-60
2022/07/11 05:08:54;;;;;;;438.30;415.48;;;15.30;99.90;;;;;;5070203;28;20091;-60
2022/07/11 05:11:20;;;;;;;398.08;377.33;;;15.40;99.90;;;;;;5071750;28;20045;-61
2022/07/11 05:13:46;;;;;;;464.90;439.45;;;15.40;99.90;;;;;;5073093;28;20234;-61
2022/07/11 05:16:12;;;;;;;451.30;426.98;;;15.40;99.90;;;;;;5070629;28;20119;-61
2022/07/11 05:18:38;;;;;;;461.42;436.95;;;15.40;99.90;;;;;;5072945;28;20099;-60
2022/07/11 05:21:05;;;;;;;466.70;440.45;;;15.40;99.90;;;;;;5073158;28;20056;-61
2022/07/11 05:23:30;;;;;;;400.55;380.65;;;15.50;99.90;;;;;;5071791;28;20053;-61
2022/07/11 05:25:56;;;;;;;401.95;381.88;;;15.50;99.90;;;;;;5071497;28;20376;-61
2022/07/11 05:28:22;;;;;;;358.80;341.50;;;15.60;99.90;;;;;;5071511;28;20044;-61
2022/07/11 05:30:48;;;;;;;391.60;372.35;;;15.70;99.90;;;;;;5072100;28;20067;-60
2022/07/11 05:33:14;;;;;;;430.75;409.25;;;15.80;99.90;;;;;;5071475;28;20052;-60
2022/07/11 05:35:40;;;;;;;386.50;366.73;;;15.80;99.90;;;;;;5071892;28;20098;-61
2022/07/11 05:38:05;;;;;;;397.65;376.80;;;15.70;99.90;;;;;;5072233;28;20044;-60
2022/07/11 05:40:31;;;;;;;441.58;417.77;;;15.70;99.90;;;;;;5072307;28;20057;-60
2022/07/11 05:42:57;;;;;;;387.02;367.48;;;15.60;99.90;;;;;;5071608;28;20072;-60
2022/07/11 05:45:23;;;;;;;459.00;433.13;;;15.60;99.90;;;;;;5072590;28;20101;-60
2022/07/11 05:47:49;;;;;;;477.75;451.15;;;15.60;99.90;;;;;;5069194;28;20055;-61
2022/07/11 05:50:14;;;;;;;341.38;324.10;;;15.60;99.90;;;;;;5051989;28;20053;-61
2022/07/11 05:52:40;;;;;;;363.52;345.00;;;15.70;99.90;;;;;;5064969;28;20040;-60
2022/07/11 05:55:06;;;;;;;440.35;416.63;;;15.70;99.90;;;;;;5071121;28;20083;-61
2022/07/11 05:57:32;;;;;;;417.77;395.10;;;15.70;99.90;;;;;;5072071;28;20045;-60
2022/07/11 05:59:58;;;;;;;460.08;434.65;;;15.70;99.90;;;;;;5070589;28;20056;-60
2022/07/11 06:02:24;;;;;;;374.50;354.63;;;15.80;99.90;;;;;;5072510;28;20406;-60
2022/07/11 06:04:50;;;;;;;471.90;445.42;;;15.80;99.90;;;;;;5071768;28;20051;-60
2022/07/11 06:08:40;;;;;;;406.60;385.13;;;15.90;99.90;;;;;;5071929;28;20051;-61
2022/07/11 06:10:01;;;;;;;409.13;387.25;;;16.00;99.90;;;;;;5060981;28;20149;-61
2022/07/11 06:12:27;;;;;;;388.58;369.40;;;16.10;99.90;;;;;;5071616;28;20489;-61
2022/07/11 06:14:53;;;;;;;519.20;489.60;;;16.20;99.90;;;;;;5072133;28;20040;-61
2022/07/11 06:17:19;;;;;;;464.48;440.85;;;16.30;99.90;;;;;;5072207;28;20040;-60
2022/07/11 06:19:44;;;;;;;342.58;326.45;;;16.30;99.90;;;;;;5070942;28;20108;-60
2022/07/11 06:22:11;;;;;;;355.13;337.77;;;16.30;99.90;;;;;;5072348;28;20076;-60
2022/07/11 06:24:38;;;;;;;415.75;394.30;;;16.30;99.90;;;;;;5076255;28;20044;-60
2022/07/11 06:27:04;;;;;;;438.80;416.05;;;16.30;99.90;;;;;;5068606;28;20045;-60
2022/07/11 06:29:30;;;;;;;455.23;431.10;;;16.30;99.90;;;;;;5064812;28;20431;-61
2022/07/11 06:31:56;;;;;;;380.98;361.45;;;16.40;99.90;;;;;;5055213;28;20087;-61
2022/07/11 06:34:22;;;;;;;478.70;453.50;;;16.60;99.90;;;;;;5064532;28;20127;-61
2022/07/11 06:36:47;;;;;;;549.28;518.78;;;16.90;99.90;;;;;;5075004;28;20044;-60
2022/07/11 06:39:13;;;;;;;500.40;472.42;;;17.20;99.90;;;;;;5074862;28;20061;-60
2022/07/11 06:41:39;;;;;;;473.05;447.33;;;17.20;99.90;;;;;;5069363;28;20486;-61
2022/07/11 06:44:05;;;;;;;416.50;394.95;;;17.30;99.90;;;;;;5070390;28;20048;-61
2022/07/11 06:46:30;;;;;;;402.85;382.55;;;17.30;99.90;;;;;;5073511;28;20445;-61
2022/07/11 06:48:56;;;;;;;352.10;335.10;;;17.20;99.90;;;;;;5075112;28;20029;-61
2022/07/11 06:51:22;;;;;;;335.58;319.17;;;17.20;99.90;;;;;;5073834;28;20080;-61
2022/07/11 06:53:48;;;;;;;416.98;394.88;;;17.00;99.90;;;;;;5072858;28;20501;-61
2022/07/11 06:56:14;;;;;;;440.63;417.35;;;17.00;99.90;;;;;;5075055;28;20049;-61
2022/07/11 06:58:39;;;;;;;457.80;432.90;;;16.90;99.90;;;;;;5074775;28;20036;-60
2022/07/11 07:01:06;;;;;;;486.60;459.15;;;16.90;99.90;;;;;;5074239;28;20431;-60
2022/07/11 07:03:33;;;;;;;431.90;408.70;;;16.90;99.90;;;;;;5074957;28;20078;-60
2022/07/11 07:06:00;;;;;;;398.83;378.05;;;16.90;99.90;;;;;;5075029;28;20052;-60
2022/07/11 07:08:28;;;;;;;315.80;300.83;;;17.10;99.90;;;;;;5073391;28;20052;-61
2022/07/11 07:10:54;;;;;;;428.15;405.25;;;17.40;99.90;;;;;;5075118;28;20057;-61
2022/07/11 07:13:23;;;;;;;415.10;393.50;;;17.50;99.90;;;;;;5073520;28;20040;-61
2022/07/11 07:15:50;;;;;;;388.67;368.88;;;17.50;99.90;;;;;;5074589;28;20075;-60
2022/07/11 07:18:16;;;;;;;471.40;445.05;;;17.40;99.90;;;;;;5075369;28;20048;-60
2022/07/11 07:20:41;;;;;;;449.95;426.15;;;17.40;99.90;;;;;;5074637;28;20057;-60
2022/07/11 07:23:08;;;;;;;271.80;258.85;;;17.20;99.90;;;;;;5069967;28;20040;-60
2022/07/11 07:25:34;;;;;;;330.10;313.70;;;17.10;99.90;;;;;;5062054;28;20052;-60
2022/07/11 07:27:59;;;;;;;299.63;286.13;;;17.10;99.90;;;;;;5083694;28;20032;-60
2022/07/11 07:30:25;;;;;;;369.42;351.10;;;17.10;99.90;;;;;;5060793;28;20565;-60
2022/07/11 07:32:51;;;;;;;364.02;346.10;;;17.00;99.90;;;;;;5058992;28;20041;-61
2022/07/11 07:35:17;;;;;;;345.65;328.73;;;17.00;99.90;;;;;;5069251;28;20102;-60
2022/07/11 07:37:42;;;;;;;316.65;301.90;;;17.00;99.90;;;;;;5070418;28;20071;-60
2022/07/11 07:40:08;;;;;;;337.58;321.48;;;17.00;99.90;;;;;;5067279;28;20155;-60
2022/07/11 07:42:34;;;;;;;301.95;287.42;;;17.10;99.90;;;;;;5072641;28;20053;-61
2022/07/11 07:45:01;;;;;;;493.88;466.80;;;17.10;99.90;;;;;;5073413;28;20044;-60
2022/07/11 07:47:28;;;;;;;525.95;495.67;;;17.20;99.90;;;;;;5072915;28;20041;-60
2022/07/11 07:49:53;;;;;;;332.50;316.48;;;17.20;99.90;;;;;;5072324;28;20049;-60
2022/07/11 07:52:19;;;;;;;361.65;343.15;;;17.20;99.90;;;;;;5072992;28;20128;-60
2022/07/11 07:54:45;;;;;;;350.52;332.92;;;17.20;99.90;;;;;;5073784;28;20084;-60
2022/07/11 07:57:11;;;;;;;368.05;349.45;;;17.20;99.90;;;;;;5071669;28;20119;-60
2022/07/11 07:59:36;;;;;;;312.98;297.92;;;17.20;99.90;;;;;;5072741;28;20036;-60
2022/07/11 08:02:02;;;;;;;328.42;312.10;;;17.30;99.90;;;;;;5071892;28;20084;-60
2022/07/11 08:04:29;;;;;;;302.30;287.90;;;17.40;99.90;;;;;;5070850;28;20410;-60
2022/07/11 08:06:56;;;;;;;352.05;334.15;;;17.60;99.90;;;;;;5073632;28;20040;-60
2022/07/11 08:09:22;;;;;;;466.50;440.67;;;17.80;99.90;;;;;;5056059;28;20123;-60
2022/07/11 08:11:48;;;;;;;429.45;406.67;;;17.80;99.90;;;;;;5070933;28;20127;-60
2022/07/11 08:14:14;;;;;;;396.65;377.48;;;18.00;99.90;;;;;;5073361;28;20541;-60
2022/07/11 08:16:41;;;;;;;478.60;452.25;;;18.10;99.90;;;;;;5073928;28;20534;-60
2022/07/11 08:19:06;;;;;;;507.75;481.33;;;18.10;99.90;;;;;;5070516;28;20079;-60
2022/07/11 08:21:33;;;;;;;469.02;445.00;;;18.10;99.90;;;;;;5071960;28;20116;-60
2022/07/11 08:24:00;;;;;;;498.60;470.83;;;18.00;99.90;;;;;;5072975;28;20059;-60
2022/07/11 08:26:26;;;;;;;632.03;595.45;;;17.90;99.90;;;;;;5072478;28;20394;-61
2022/07/11 08:28:52;;;;;;;560.50;528.45;;;17.80;99.90;;;;;;5072726;28;20060;-61
2022/07/11 08:31:18;;;;;;;503.33;476.48;;;17.80;99.90;;;;;;5073144;28;20043;-61
2022/07/11 08:33:44;;;;;;;662.83;622.85;;;17.70;99.90;;;;;;5072798;28;20056;-61
2022/07/11 08:36:10;;;;;;;431.92;407.67;;;17.60;99.90;;;;;;5073383;28;20101;-61
2022/07/11 08:38:37;;;;;;;299.30;285.23;;;17.50;99.90;;;;;;5072921;28;20041;-61
2022/07/11 08:41:03;;;;;;;490.30;461.40;;;17.50;99.90;;;;;;5072862;28;20048;-61
2022/07/11 08:43:29;;;;;;;440.75;418.02;;;17.50;99.90;;;;;;5073207;28;20407;-61
2022/07/11 08:45:56;;;;;;;513.72;486.05;;;17.50;99.90;;;;;;5071837;28;20048;-61
2022/07/11 08:48:23;;;;;;;454.65;429.60;;;17.60;99.90;;;;;;5071500;28;20048;-61
2022/07/11 08:50:50;;;;;;;498.52;470.60;;;17.70;99.90;;;;;;5072345;28;20091;-61
2022/07/11 08:53:17;;;;;;;430.52;408.45;;;17.70;99.90;;;;;;5072691;28;20127;-61
2022/07/11 08:55:43;;;;;;;503.35;475.70;;;17.70;99.90;;;;;;5072640;28;20044;-60
2022/07/11 08:58:10;;;;;;;530.88;501.45;;;17.60;99.90;;;;;;5073060;28;20114;-60
2022/07/11 09:00:36;;;;;;;495.25;468.08;;;17.50;99.90;;;;;;5072173;28;20132;-60
2022/07/11 09:03:03;;;;;;;296.30;282.85;;;17.40;99.90;;;;;;5067915;28;20386;-60
2022/07/11 09:05:31;;;;;;;404.20;383.42;;;17.30;99.90;;;;;;5055311;28;20372;-60
2022/07/11 09:07:57;;;;;;;486.45;461.00;;;17.30;99.90;;;;;;5056403;28;20478;-60
2022/07/11 09:10:23;;;;;;;452.38;426.35;;;17.40;99.90;;;;;;5071773;28;20120;-60
2022/07/11 09:13:02;;;;;;;400.20;379.42;;;17.50;99.90;;;;;;5069666;28;20040;-61
2022/07/11 09:15:33;;;;;;;398.45;378.40;;;17.70;99.90;;;;;;5070734;28;20123;-60
2022/07/11 09:18:00;;;;;;;424.23;401.70;;;17.80;99.90;;;;;;5065932;28;20525;-61
2022/07/11 09:25:19;;;;;;;477.90;451.70;;;17.90;99.90;;;;;;5060767;28;20077;-61
2022/07/11 09:26:05;;;;;;;365.67;347.13;;;17.80;99.90;;;;;;5072085;28;20092;-60
2022/07/11 09:28:31;;;;;;;432.88;411.05;;;17.70;99.90;;;;;;5071882;28;20045;-61
2022/07/11 09:30:57;;;;;;;339.75;323.70;;;17.70;99.90;;;;;;5071127;28;20548;-61
2022/07/11 09:33:22;;;;;;;383.17;364.42;;;17.60;99.90;;;;;;5071926;28;20067;-60
2022/07/11 09:35:49;;;;;;;356.88;339.13;;;17.70;99.90;;;;;;5071856;28;20053;-61
2022/07/11 09:38:16;;;;;;;503.38;476.98;;;17.80;99.90;;;;;;5070880;28;20060;-60
2022/07/11 09:40:45;;;;;;;432.00;410.40;;;17.90;99.90;;;;;;5071304;28;20053;-60
2022/07/11 09:43:11;;;;;;;409.55;389.20;;;17.90;99.90;;;;;;5071852;28;20048;-60
2022/07/11 09:45:37;;;;;;;576.55;543.85;;;17.80;99.90;;;;;;5070629;28;20053;-61
2022/07/11 09:48:11;;;;;;;580.15;547.00;;;17.70;99.90;;;;;;5061973;28;20049;-61
2022/07/11 09:50:39;;;;;;;422.17;400.45;;;17.60;99.90;;;;;;5069332;28;20079;-61
2022/07/11 09:53:10;;;;;;;464.40;439.10;;;17.40;99.90;;;;;;5071724;28;20049;-60
2022/07/11 09:55:37;;;;;;;342.10;325.27;;;17.40;99.90;;;;;;5071206;28;20075;-60
2022/07/11 09:58:07;;;;;;;321.60;306.58;;;17.40;99.90;;;;;;5073322;28;20052;-60
2022/07/11 10:00:35;;;;;;;342.30;325.33;;;17.50;99.90;;;;;;5076148;28;20486;-60
2022/07/11 10:03:02;;;;;;;375.35;357.73;;;17.70;99.90;;;;;;5074031;28;20080;-60
2022/07/11 10:05:29;;;;;;;415.60;394.63;;;17.80;99.90;;;;;;5073566;28;20051;-60
2022/07/11 10:07:55;;;;;;;486.50;461.40;;;18.00;99.90;;;;;;5071024;28;20052;-60
2022/07/11 10:10:21;;;;;;;431.75;410.90;;;18.00;99.90;;;;;;5074657;28;20044;-60
2022/07/11 10:12:47;;;;;;;344.83;329.42;;;18.10;99.90;;;;;;5076105;28;20048;-60
2022/07/11 10:15:17;;;;;;;398.13;379.83;;;18.10;99.90;;;;;;5075270;28;20397;-59
2022/07/11 10:17:58;;;;;;;376.48;359.42;;;18.20;99.90;;;;;;5073242;28;20123;-60
2022/07/11 10:20:29;;;;;;;478.50;454.13;;;18.30;99.90;;;;;;5064318;28;20594;-60
2022/07/11 10:23:06;;;;;;;426.45;406.08;;;18.30;99.90;;;;;;5071386;28;20048;-60
2022/07/11 10:25:37;;;;;;;475.48;450.77;;;18.30;99.90;;;;;;5073303;28;20048;-60
2022/07/11 10:28:25;;;;;;;694.92;653.33;;;18.50;99.90;;;;;;5074638;28;20075;-60
2022/07/11 10:30:55;;;;;;;413.05;393.92;;;18.70;99.90;;;;;;5075721;28;20536;-61
2022/07/11 10:33:22;;;;;;;436.30;415.73;;;18.70;99.90;;;;;;5073374;28;20056;-60
2022/07/11 10:35:50;;;;;;;392.02;373.48;;;18.60;99.90;;;;;;5074767;28;20094;-60
2022/07/11 10:38:17;;;;;;;534.88;507.25;;;18.50;99.90;;;;;;5074477;28;20059;-60
2022/07/11 10:40:50;;;;;;;617.30;581.85;;;18.50;99.90;;;;;;5074878;28;20186;-60
2022/07/11 10:43:21;;;;;;;;;;;18.30;99.90;;;;;;5075858;28;20051;-60
2022/07/11 10:45:58;;;;;;;405.33;385.67;;;18.20;99.90;;;;;;5074318;28;20313;-60
2022/07/11 10:48:25;;;;;;;358.10;341.85;;;18.20;99.90;;;;;;5075282;28;20048;-60
2022/07/11 10:51:14;;;;;;;462.88;439.98;;;18.20;99.90;;;;;;5075513;28;20052;-60
2022/07/11 10:53:46;;;;;;;425.02;404.85;;;18.30;99.90;;;;;;5074498;28;20509;-60
2022/07/11 10:56:43;;;;;;;432.15;411.52;;;18.40;99.90;;;;;;5075482;28;20052;-60
2022/07/11 10:59:18;;;;;;;431.15;410.10;;;18.40;99.90;;;;;;5073370;28;20121;-60
2022/07/11 11:02:11;;;;;;;449.27;427.80;;;18.60;99.90;;;;;;5075189;28;20056;-61
2022/07/11 11:04:59;;;;;;;554.80;525.30;;;18.70;99.90;;;;;;5074061;28;20048;-60
2022/07/11 11:07:31;;;;;;;482.23;458.42;;;18.80;99.90;;;;;;5073691;28;20056;-60
2022/07/11 11:09:57;;;;;;;;;;;18.80;99.90;;;;;;5055969;28;20479;-60
2022/07/11 11:13:04;;;;;;;481.88;458.10;;;18.90;99.90;;;;;;5059510;28;19916;-60
2022/07/11 11:15:49;;;;;;;454.83;433.17;;;19.00;99.90;;;;;;5066366;28;20037;-61
2022/07/11 11:18:43;;;;;;;428.63;408.48;;;19.20;99.90;;;;;;5074965;28;20091;-60
2022/07/11 11:21:09;;;;;;;433.88;413.40;;;19.20;99.90;;;;;;5071477;28;20088;-60
2022/07/11 11:23:38;;;;;;;391.42;373.63;;;19.30;99.90;;;;;;5074447;28;20051;-60
2022/07/11 11:26:09;;;;;;;499.58;474.58;;;19.40;99.90;;;;;;5074831;28;20070;-61
2022/07/11 11:28:36;;;;;;;535.38;507.88;;;19.50;99.90;;;;;;5074478;28;20109;-60
2022/07/11 11:31:04;;;;;;;542.92;513.97;;;19.40;99.90;;;;;;5074671;28;20099;-61
2022/07/11 11:33:32;;;;;;;530.00;502.50;;;19.40;99.90;;;;;;5074861;28;20150;-60
2022/07/11 11:36:06;;;;;;;483.38;459.73;;;19.40;99.90;;;;;;5073041;28;20052;-60
2022/07/11 11:38:36;;;;;;;578.63;547.47;;;19.40;99.90;;;;;;5074454;28;20048;-60
2022/07/11 11:41:02;;;;;;;491.23;466.75;;;19.50;99.90;;;;;;5074360;28;20499;-61
2022/07/11 11:43:28;;;;;;;459.88;436.42;;;19.40;99.90;;;;;;5073756;28;20036;-61
2022/07/11 11:45:55;;;;;;;505.35;479.83;;;19.40;99.90;;;;;;5073952;28;20048;-61
2022/07/11 11:48:34;;;;;;;575.55;544.75;;;19.40;99.90;;;;;;5073260;28;20037;-60
2022/07/11 11:51:20;;;;;;;589.97;557.35;;;19.40;99.90;;;;;;5072448;28;20077;-61
2022/07/11 11:53:48;;;;;;;523.22;496.58;;;19.30;99.90;;;;;;5071379;28;20044;-60
2022/07/11 11:56:21;;;;;;;537.92;509.98;;;19.30;99.90;;;;;;5073345;28;20044;-61
2022/07/11 11:58:48;;;;;;;557.13;526.95;;;19.30;99.90;;;;;;5073955;28;20052;-60
2022/07/11 12:01:19;;;;;;;523.10;495.77;;;19.30;99.90;;;;;;5070271;28;20050;-60
2022/07/11 12:03:48;;;;;;;624.85;588.80;;;19.30;99.90;;;;;;5073276;28;20059;-61
2022/07/11 12:06:14;;;;;;;455.65;433.15;;;19.20;99.90;;;;;;5073878;28;20049;-60
2022/07/11 12:08:40;;;;;;;525.00;497.80;;;19.30;99.90;;;;;;5072313;28;20056;-61
2022/07/11 12:11:11;;;;;;;483.33;458.52;;;19.20;99.90;;;;;;5070943;28;20037;-61
2022/07/11 12:13:37;;;;;;;528.10;500.13;;;19.10;99.90;;;;;;5073230;28;20054;-61